Welcome to the New NWS' Forecast!
Most changes are behind the scenes, but click here for differences you might notice.

Terminal Aerodrome Forecast (TAF)

Issued by National Weather Service (NWS)

                            
162 
FTUS42 KKEY 162328
TAFEYW
TAF
KEYW 162328Z 1700/1724 10010KT P6SM SCT025=